Ferrigno Boy — WCY2558 — position and weather

sailwx.info

Track history (hours):
 
Tides and Currents Weather Stations Pressure Air Temp Water Temp Dewpoint Dewpoint Depression Visibility Wind Speed Wind Dir Waves Ship Positions

Ferrigno Boy

Owner: FERRIGNO, CIRO, SAN PEDRO, CA. More information available from US FCC via Universal Licensing System and Coast Guard Vessel Documentation Center.

Last reported at 2017-Dec-11 16:59 UTC. Time now 2017-Dec-12 12:30 UTC.
Position N 34°14' W 119°16'.

Type: Fishing. MMSI: 367578550.

Date/timePositionNaut miles runAvg speedWind from/ knotsBaromVisibWave heightAir tempDewpointWater temp
2017-Dec-11 16:59N 34°14' W 119°16'1 1.5
2017-Dec-11 16:30N 34°14' W 119°17'4 8.2
2017-Dec-11 16:00N 34°11' W 119°20'4 8.3
2017-Dec-11 15:30N 34°08' W 119°23'4 8.0
2017-Dec-11 15:00N 34°05' W 119°26'4 8.1
2017-Dec-11 14:29N 34°02' W 119°29'21 6.6
2017-Dec-11 11:21N 33°57' W 119°54'3 3.7
2017-Dec-11 10:37N 33°57' W 119°57'0 0.0
2017-Dec-11 08:28N 33°57' W 119°57'0 0.1
2017-Dec-11 07:56N 33°57' W 119°57'0 0.0
2017-Dec-11 07:27N 33°57' W 119°57'0 0.2
2017-Dec-11 06:44N 33°57' W 119°57'0 0.5
2017-Dec-11 06:23N 33°57' W 119°57'0 0.2
2017-Dec-11 05:54N 33°57' W 119°57'0 0.1
2017-Dec-11 05:05N 33°57' W 119°57'0 0.9
2017-Dec-11 04:59N 33°57' W 119°57'0 0.0
2017-Dec-11 04:30N 33°57' W 119°57'5 5.8
2017-Dec-11 03:35N 34°02' W 119°55'1 5.2
2017-Dec-11 03:26N 34°02' W 119°56'3 7.8
2017-Dec-11 03:00N 33°60' W 119°59'3 6.3
2017-Dec-11 02:30N 33°57' W 119°57'0 0.0
2017-Dec-10 20:53N 33°58' W 119°57'0 0.1
2017-Dec-10 20:30N 33°58' W 119°57'3 5.4
2017-Dec-10 20:00N 33°56' W 119°54'18 8.3
2017-Dec-10 17:51N 33°58' W 119°33'4 9.8
2017-Dec-10 17:26N 33°57' W 119°28'5 9.8
2017-Dec-10 16:57N 33°55' W 119°23'5 9.9
2017-Dec-10 16:30N 33°54' W 119°17'510.1
2017-Dec-10 16:00N 33°52' W 119°12'510.1
2017-Dec-10 15:30N 33°51' W 119°06'5 9.8
2017-Dec-10 14:58N 33°49' W 118°60'5 9.7
2017-Dec-10 14:30N 33°48' W 118°54'5 9.8
2017-Dec-10 13:58N 33°47' W 118°48'32 0.7
2017-Dec-08 14:29N 33°56' W 119°26'27 4.1
2017-Dec-08 07:58N 34°05' W 119°56'5 9.7
2017-Dec-08 07:30N 34°04' W 119°51'3 5.9
2017-Dec-08 06:59N 34°04' W 119°47'5 9.5
2017-Dec-08 06:29N 34°04' W 119°42'5 9.2
2017-Dec-08 05:56N 34°04' W 119°36'9 1.7
2017-Dec-08 00:50N 33°57' W 119°30'3 9.1
2017-Dec-08 00:30N 33°56' W 119°26'5 9.1
2017-Dec-07 23:58N 33°55' W 119°20'4 9.1
2017-Dec-07 23:30N 33°54' W 119°16'5 9.2
2017-Dec-07 23:00N 33°53' W 119°10'4 8.8
2017-Dec-07 22:30N 33°52' W 119°05'5 9.0
2017-Dec-07 21:59N 33°50' W 118°60'  
2017-Dec-03 22:01N 33°57' W 119°29'1 8.6
2017-Dec-03 21:58N 33°57' W 119°29'6 9.5
2017-Dec-03 21:21N 33°56' W 119°22'3 9.8
2017-Dec-03 21:00N 33°55' W 119°18'5 9.7
2017-Dec-03 20:30N 33°54' W 119°12'5 9.2
2017-Dec-03 19:59N 33°53' W 119°06'4 8.8
2017-Dec-03 19:30N 33°52' W 119°01'4 8.8
2017-Dec-03 19:00N 33°51' W 118°56'19 9.0
2017-Dec-03 16:52N 33°45' W 118°34'  
Track history (hours):
 
Tides and Currents Weather Stations Pressure Air Temp Water Temp Dewpoint Dewpoint Depression Visibility Wind Speed Wind Dir Waves Ship Positions

Ferrigno Boy

Owner: FERRIGNO, CIRO, SAN PEDRO, CA. More information available from US FCC via Universal Licensing System and Coast Guard Vessel Documentation Center.

Last reported at 2017-Dec-11 16:59 UTC. Time now 2017-Dec-12 12:30 UTC.
Position N 34°14' W 119°16'.

Type: Fishing. MMSI: 367578550.

Date/timePositionNaut miles runAvg speedWind from/ knotsBaromVisibWave heightAir tempDewpointWater temp
2017-Dec-11 16:59N 34°14' W 119°16'1 1.5
2017-Dec-11 16:30N 34°14' W 119°17'4 8.2
2017-Dec-11 16:00N 34°11' W 119°20'4 8.3
2017-Dec-11 15:30N 34°08' W 119°23'4 8.0
2017-Dec-11 15:00N 34°05' W 119°26'4 8.1
2017-Dec-11 14:29N 34°02' W 119°29'21 6.6
2017-Dec-11 11:21N 33°57' W 119°54'3 3.7
2017-Dec-11 10:37N 33°57' W 119°57'0 0.0
2017-Dec-11 08:28N 33°57' W 119°57'0 0.1
2017-Dec-11 07:56N 33°57' W 119°57'0 0.0
2017-Dec-11 07:27N 33°57' W 119°57'0 0.2
2017-Dec-11 06:44N 33°57' W 119°57'0 0.5
2017-Dec-11 06:23N 33°57' W 119°57'0 0.2
2017-Dec-11 05:54N 33°57' W 119°57'0 0.1
2017-Dec-11 05:05N 33°57' W 119°57'0 0.9
2017-Dec-11 04:59N 33°57' W 119°57'0 0.0
2017-Dec-11 04:30N 33°57' W 119°57'5 5.8
2017-Dec-11 03:35N 34°02' W 119°55'1 5.2
2017-Dec-11 03:26N 34°02' W 119°56'3 7.8
2017-Dec-11 03:00N 33°60' W 119°59'3 6.3
2017-Dec-11 02:30N 33°57' W 119°57'0 0.0
2017-Dec-10 20:53N 33°58' W 119°57'0 0.1
2017-Dec-10 20:30N 33°58' W 119°57'3 5.4
2017-Dec-10 20:00N 33°56' W 119°54'18 8.3
2017-Dec-10 17:51N 33°58' W 119°33'4 9.8
2017-Dec-10 17:26N 33°57' W 119°28'5 9.8
2017-Dec-10 16:57N 33°55' W 119°23'5 9.9
2017-Dec-10 16:30N 33°54' W 119°17'510.1
2017-Dec-10 16:00N 33°52' W 119°12'510.1
2017-Dec-10 15:30N 33°51' W 119°06'5 9.8
2017-Dec-10 14:58N 33°49' W 118°60'5 9.7
2017-Dec-10 14:30N 33°48' W 118°54'5 9.8
2017-Dec-10 13:58N 33°47' W 118°48'32 0.7
2017-Dec-08 14:29N 33°56' W 119°26'27 4.1
2017-Dec-08 07:58N 34°05' W 119°56'5 9.7
2017-Dec-08 07:30N 34°04' W 119°51'3 5.9
2017-Dec-08 06:59N 34°04' W 119°47'5 9.5
2017-Dec-08 06:29N 34°04' W 119°42'5 9.2
2017-Dec-08 05:56N 34°04' W 119°36'9 1.7
2017-Dec-08 00:50N 33°57' W 119°30'3 9.1
2017-Dec-08 00:30N 33°56' W 119°26'5 9.1
2017-Dec-07 23:58N 33°55' W 119°20'4 9.1
2017-Dec-07 23:30N 33°54' W 119°16'5 9.2
2017-Dec-07 23:00N 33°53' W 119°10'4 8.8
2017-Dec-07 22:30N 33°52' W 119°05'5 9.0
2017-Dec-07 21:59N 33°50' W 118°60'  
2017-Dec-03 22:01N 33°57' W 119°29'1 8.6
2017-Dec-03 21:58N 33°57' W 119°29'6 9.5
2017-Dec-03 21:21N 33°56' W 119°22'3 9.8
2017-Dec-03 21:00N 33°55' W 119°18'5 9.7
2017-Dec-03 20:30N 33°54' W 119°12'5 9.2
2017-Dec-03 19:59N 33°53' W 119°06'4 8.8
2017-Dec-03 19:30N 33°52' W 119°01'4 8.8
2017-Dec-03 19:00N 33°51' W 118°56'19 9.0
2017-Dec-03 16:52N 33°45' W 118°34'  

Dump ship's entire track history